createdAt,value
2022-11-24T00:00:35.098Z,100093.00
2022-11-24T00:03:05.904Z,100104.00
2022-11-24T00:05:39.145Z,100098.00
2022-11-24T00:08:11.721Z,100091.00
2022-11-24T00:10:41.647Z,100104.00
2022-11-24T00:13:11.502Z,100096.00
2022-11-24T00:15:41.423Z,100101.00
2022-11-24T00:18:11.297Z,100098.00
2022-11-24T00:20:41.183Z,100095.00
2022-11-24T00:23:13.646Z,100103.00
2022-11-24T00:25:43.524Z,100090.00
2022-11-24T00:28:13.402Z,100094.00
2022-11-24T00:30:43.317Z,100074.00
2022-11-24T00:33:13.381Z,100084.00
2022-11-24T00:35:43.255Z,100093.00
2022-11-24T00:38:15.683Z,100098.00
2022-11-24T00:40:46.241Z,100103.00
2022-11-24T00:43:16.079Z,100110.00
2022-11-24T00:45:46.304Z,100107.00
2022-11-24T00:48:16.352Z,100106.00
2022-11-24T00:50:46.222Z,100112.00
2022-11-24T00:53:18.661Z,100104.00
2022-11-24T00:55:52.557Z,100099.00
2022-11-24T00:58:22.560Z,100095.00
2022-11-24T01:00:52.858Z,100102.00
2022-11-24T01:03:24.098Z,100097.00
2022-11-24T01:05:54.004Z,100107.00
2022-11-24T01:08:26.447Z,100103.00
2022-11-24T01:10:56.312Z,100103.00
2022-11-24T01:13:26.191Z,100104.00
2022-11-24T01:15:56.101Z,100097.00
2022-11-24T01:18:26.064Z,100099.00
2022-11-24T01:20:55.970Z,100107.00
2022-11-24T01:23:28.504Z,100109.00
2022-11-24T01:25:58.405Z,100106.00
2022-11-24T01:28:28.316Z,100109.00
2022-11-24T01:31:01.573Z,100107.00
2022-11-24T01:33:31.949Z,100103.00
2022-11-24T01:36:02.227Z,100106.00
2022-11-24T01:38:35.091Z,100108.00
2022-11-24T01:41:07.408Z,100111.00
2022-11-24T01:43:37.482Z,100101.00
2022-11-24T01:46:16.797Z,100105.00
2022-11-24T01:48:50.566Z,100112.00
2022-11-24T01:51:26.852Z,100111.00
2022-11-24T01:54:03.947Z,100112.00
2022-11-24T01:56:36.384Z,100118.00
2022-11-24T01:59:10.515Z,100126.00
2022-11-24T02:01:40.586Z,100131.00
2022-11-24T02:04:15.547Z,100125.00
2022-11-24T02:06:48.865Z,100126.00
2022-11-24T02:09:26.923Z,100115.00
2022-11-24T02:11:57.541Z,100122.00
2022-11-24T02:14:29.193Z,100121.00
2022-11-24T02:16:59.113Z,100117.00
2022-11-24T02:19:43.250Z,100118.00
2022-11-24T02:22:19.114Z,100124.00
2022-11-24T02:24:55.551Z,100126.00
2022-11-24T02:27:28.856Z,100127.00
2022-11-24T02:29:58.942Z,100136.00
2022-11-24T02:32:29.019Z,100143.00
2022-11-24T02:35:04.119Z,100149.00
2022-11-24T02:37:34.006Z,100161.00
2022-11-24T02:40:03.895Z,100162.00
2022-11-24T02:42:40.568Z,100154.00
2022-11-24T02:45:13.169Z,100154.00
2022-11-24T02:47:43.038Z,100158.00
2022-11-24T02:50:13.268Z,100158.00
2022-11-24T02:52:43.784Z,100152.00
2022-11-24T02:55:13.671Z,100160.00
2022-11-24T02:57:46.130Z,100163.00
2022-11-24T03:00:17.819Z,100156.00
2022-11-24T03:02:47.863Z,100156.00
2022-11-24T03:05:18.052Z,100167.00
2022-11-24T03:07:48.035Z,100170.00
2022-11-24T03:10:18.799Z,100157.00
2022-11-24T03:12:51.250Z,100162.00
2022-11-24T03:15:21.202Z,100168.00
2022-11-24T03:17:51.707Z,100159.00
2022-11-24T03:20:21.769Z,100157.00
2022-11-24T03:22:51.645Z,100162.00
2022-11-24T03:25:22.132Z,100161.00
2022-11-24T03:27:54.609Z,100150.00
2022-11-24T03:30:24.496Z,100153.00
2022-11-24T03:32:55.639Z,100140.00
2022-11-24T03:35:26.040Z,100159.00
2022-11-24T03:37:56.021Z,100155.00
2022-11-24T03:40:25.908Z,100155.00
2022-11-24T03:42:58.579Z,100134.00
2022-11-24T03:48:21.233Z,100151.00
2022-11-24T03:50:57.693Z,100149.00
2022-11-24T03:53:30.159Z,100156.00
2022-11-24T03:56:00.681Z,100166.00
2022-11-24T03:58:33.808Z,100170.00
2022-11-24T04:01:03.699Z,100169.00
2022-11-24T04:03:33.702Z,100182.00
2022-11-24T04:06:03.595Z,100173.00
2022-11-24T04:08:33.450Z,100181.00
2022-11-24T04:11:03.354Z,100198.00
2022-11-24T04:13:33.416Z,100190.00
2022-11-24T04:16:03.306Z,100198.00
2022-11-24T04:18:33.193Z,100192.00
2022-11-24T04:21:05.384Z,100194.00
2022-11-24T04:23:35.259Z,100177.00
2022-11-24T04:26:05.125Z,100187.00
2022-11-24T04:28:38.627Z,100186.00
2022-11-24T04:31:09.699Z,100180.00
2022-11-24T04:33:39.669Z,100192.00
2022-11-24T04:36:10.210Z,100199.00
2022-11-24T04:39:19.416Z,100192.00
2022-11-24T04:41:29.934Z,100201.00
2022-11-24T04:44:02.404Z,100210.00
2022-11-24T04:46:32.299Z,100203.00
2022-11-24T04:49:02.219Z,100213.00
2022-11-24T04:51:32.119Z,100205.00
2022-11-24T04:54:01.999Z,100208.00
2022-11-24T04:56:31.887Z,100210.00
2022-11-24T04:59:08.454Z,100217.00
2022-11-24T05:01:38.729Z,100218.00
2022-11-24T05:04:08.776Z,100219.00
2022-11-24T05:06:38.652Z,100230.00
2022-11-24T05:09:09.845Z,100225.00
2022-11-24T05:11:39.675Z,100225.00
2022-11-24T05:14:12.229Z,100241.00
2022-11-24T05:16:42.097Z,100229.00
2022-11-24T05:19:12.293Z,100221.00
2022-11-24T05:21:42.184Z,100229.00
2022-11-24T05:24:13.798Z,100229.00
2022-11-24T05:26:43.599Z,100238.00
2022-11-24T05:29:16.183Z,100243.00
2022-11-24T05:31:46.067Z,100252.00
2022-11-24T05:34:16.422Z,100249.00
2022-11-24T05:37:01.393Z,100260.00
2022-11-24T05:39:31.254Z,100271.00
2022-11-24T05:42:01.141Z,100283.00
2022-11-24T05:44:33.848Z,100280.00
2022-11-24T05:47:03.898Z,100282.00
2022-11-24T05:49:33.773Z,100278.00
2022-11-24T05:52:03.590Z,100283.00
2022-11-24T05:54:33.761Z,100284.00
2022-11-24T05:57:03.825Z,100284.00
2022-11-24T05:59:36.266Z,100280.00
2022-11-24T06:02:06.189Z,100287.00
2022-11-24T06:04:36.475Z,100291.00
2022-11-24T06:07:07.126Z,100288.00
2022-11-24T06:09:39.478Z,100295.00
2022-11-24T06:12:10.794Z,100300.00
2022-11-24T06:14:43.840Z,100302.00
2022-11-24T06:17:14.251Z,100306.00
2022-11-24T06:19:47.808Z,100296.00
2022-11-24T06:22:19.048Z,100297.00
2022-11-24T06:24:50.670Z,100297.00
2022-11-24T06:27:20.962Z,100303.00
2022-11-24T06:29:53.658Z,100308.00
2022-11-24T06:32:24.209Z,100309.00
2022-11-24T06:34:54.109Z,100311.00
2022-11-24T06:37:23.975Z,100322.00
2022-11-24T06:39:53.935Z,100312.00
2022-11-24T06:42:23.801Z,100320.00
2022-11-24T06:44:56.254Z,100312.00
2022-11-24T06:47:26.097Z,100321.00
2022-11-24T06:49:56.129Z,100336.00
2022-11-24T06:52:26.081Z,100336.00
2022-11-24T06:54:57.295Z,100326.00
2022-11-24T06:57:27.205Z,100333.00
2022-11-24T07:00:00.157Z,100338.00
2022-11-24T07:02:30.321Z,100332.00
2022-11-24T07:05:00.147Z,100335.00
2022-11-24T07:07:30.008Z,100335.00
2022-11-24T07:09:59.871Z,100345.00
2022-11-24T07:12:29.764Z,100335.00
2022-11-24T07:15:02.175Z,100339.00
2022-11-24T07:17:32.025Z,100353.00
2022-11-24T07:20:01.846Z,100349.00
2022-11-24T07:22:31.706Z,100353.00
2022-11-24T07:25:01.848Z,100348.00
2022-11-24T07:27:31.816Z,100363.00
2022-11-24T07:30:04.432Z,100363.00
2022-11-24T07:32:34.370Z,100365.00
2022-11-24T07:35:04.215Z,100367.00
2022-11-24T07:37:34.138Z,100375.00
2022-11-24T07:40:04.005Z,100371.00
2022-11-24T07:42:33.846Z,100377.00
2022-11-24T07:45:06.850Z,100378.00
2022-11-24T07:47:36.704Z,100375.00
2022-11-24T07:50:07.150Z,100380.00
2022-11-24T07:52:37.078Z,100380.00
2022-11-24T07:55:08.899Z,100379.00
2022-11-24T07:57:39.080Z,100377.00
2022-11-24T08:00:13.939Z,100381.00
2022-11-24T08:02:44.695Z,100374.00
2022-11-24T08:05:14.563Z,100377.00
2022-11-24T08:07:44.460Z,100378.00
2022-11-24T08:10:14.421Z,100379.00
2022-11-24T08:12:44.303Z,100371.00
2022-11-24T08:15:16.842Z,100376.00
2022-11-24T08:17:46.882Z,100367.00
2022-11-24T08:20:16.928Z,100379.00
2022-11-24T08:22:46.818Z,100384.00
2022-11-24T08:25:17.882Z,100385.00
2022-11-24T08:27:47.732Z,100390.00
2022-11-24T08:30:21.142Z,100390.00
2022-11-24T08:32:51.006Z,100398.00
2022-11-24T08:35:20.847Z,100395.00
2022-11-24T08:37:51.071Z,100397.00
2022-11-24T08:40:21.751Z,100396.00
2022-11-24T08:42:51.620Z,100399.00
2022-11-24T08:45:25.639Z,100404.00
2022-11-24T08:47:56.757Z,100399.00
2022-11-24T08:50:27.894Z,100403.00
2022-11-24T08:52:57.792Z,100405.00
2022-11-24T08:55:27.775Z,100397.00
2022-11-24T08:57:57.580Z,100402.00
2022-11-24T09:00:30.011Z,100404.00
2022-11-24T09:03:01.069Z,100405.00
2022-11-24T09:08:20.821Z,100404.00
2022-11-24T09:10:51.526Z,100414.00
2022-11-24T09:13:21.563Z,100412.00
2022-11-24T09:15:53.987Z,100418.00
2022-11-24T09:18:27.567Z,100420.00
2022-11-24T09:21:09.761Z,100421.00
2022-11-24T09:23:40.082Z,100432.00
2022-11-24T09:26:13.221Z,100434.00
2022-11-24T09:28:43.702Z,100427.00
2022-11-24T09:31:19.006Z,100433.00
2022-11-24T09:33:49.373Z,100427.00
2022-11-24T09:36:19.406Z,100432.00
2022-11-24T09:38:49.306Z,100426.00
2022-11-24T09:41:53.898Z,100421.00
2022-11-24T09:44:57.229Z,100421.00
2022-11-24T09:47:41.589Z,100433.00
2022-11-24T09:50:18.552Z,100439.00
2022-11-24T09:52:54.011Z,100437.00
2022-11-24T09:55:33.917Z,100453.00
2022-11-24T09:58:20.196Z,100448.00
2022-11-24T10:00:53.603Z,100456.00
2022-11-24T10:03:33.006Z,100459.00
2022-11-24T10:06:08.541Z,100444.00
2022-11-24T10:08:56.428Z,100452.00
2022-11-24T10:11:38.910Z,100451.00
2022-11-24T10:14:53.432Z,100466.00
2022-11-24T10:17:46.015Z,100458.00
2022-11-24T10:20:30.584Z,100459.00
2022-11-24T10:23:20.669Z,100463.00
2022-11-24T10:25:55.658Z,100468.00
2022-11-24T10:28:30.206Z,100470.00
2022-11-24T10:31:19.254Z,100468.00
2022-11-24T10:33:50.425Z,100467.00
2022-11-24T10:36:32.399Z,100464.00
2022-11-24T10:39:08.916Z,100467.00
2022-11-24T10:41:49.465Z,100471.00
2022-11-24T10:44:19.346Z,100461.00
2022-11-24T10:46:49.326Z,100463.00
2022-11-24T10:49:24.737Z,100467.00
2022-11-24T10:52:07.776Z,100469.00
2022-11-24T10:54:41.440Z,100467.00
2022-11-24T10:57:11.439Z,100468.00
2022-11-24T10:59:42.161Z,100475.00
2022-11-24T11:02:32.823Z,100475.00
2022-11-24T11:05:43.781Z,100460.00
2022-11-24T11:08:26.793Z,100463.00
2022-11-24T11:11:19.653Z,100466.00
2022-11-24T11:14:03.104Z,100453.00
2022-11-24T11:16:39.058Z,100463.00
2022-11-24T11:20:01.754Z,100466.00
2022-11-24T11:22:35.218Z,100463.00
2022-11-24T11:25:21.680Z,100472.00
2022-11-24T11:27:52.159Z,100466.00
2022-11-24T11:36:17.562Z,100466.00
2022-11-24T11:38:50.680Z,100466.00
2022-11-24T11:41:29.516Z,100473.00
2022-11-24T11:44:14.629Z,100478.00
2022-11-24T11:46:46.583Z,100470.00
2022-11-24T11:49:16.961Z,100466.00
2022-11-24T11:52:04.182Z,100473.00
2022-11-24T11:55:00.373Z,100473.00
2022-11-24T11:57:41.319Z,100472.00
2022-11-24T12:00:16.104Z,100467.00
2022-11-24T12:03:16.658Z,100471.00
2022-11-24T12:05:59.110Z,100470.00
2022-11-24T12:09:11.410Z,100464.00
2022-11-24T12:11:40.248Z,100462.00
2022-11-24T12:14:26.791Z,100473.00
2022-11-24T12:17:08.134Z,100485.00
2022-11-24T12:19:55.463Z,100477.00
2022-11-24T12:22:36.755Z,100476.00
2022-11-24T12:25:25.141Z,100473.00
2022-11-24T12:28:11.751Z,100480.00
2022-11-24T12:30:47.940Z,100478.00
2022-11-24T12:33:56.533Z,100477.00
2022-11-24T12:36:47.691Z,100485.00
2022-11-24T12:39:28.853Z,100472.00
2022-11-24T12:42:12.198Z,100486.00
2022-11-24T12:45:21.305Z,100481.00
2022-11-24T12:48:17.562Z,100490.00
2022-11-24T12:50:49.223Z,100485.00
2022-11-24T12:53:23.139Z,100483.00
2022-11-24T12:56:07.450Z,100482.00
2022-11-24T12:58:50.205Z,100478.00
2022-11-24T13:01:34.552Z,100481.00
2022-11-24T13:04:15.754Z,100482.00
2022-11-24T13:06:55.164Z,100497.00
2022-11-24T13:09:25.039Z,100498.00
2022-11-24T13:12:02.044Z,100503.00
2022-11-24T13:14:35.769Z,100498.00
2022-11-24T13:17:33.725Z,100512.00
2022-11-24T13:20:26.335Z,100515.00
2022-11-24T13:22:58.628Z,100517.00
2022-11-24T13:25:31.137Z,100525.00
2022-11-24T13:28:02.254Z,100516.00
2022-11-24T13:30:57.919Z,100520.00
2022-11-24T13:33:44.331Z,100532.00
2022-11-24T13:36:36.839Z,100531.00
2022-11-24T13:39:24.388Z,100518.00
2022-11-24T13:42:43.609Z,100525.00
2022-11-24T13:45:07.129Z,100528.00
2022-11-24T13:47:46.824Z,100528.00
2022-11-24T13:50:47.217Z,100528.00
2022-11-24T13:53:28.816Z,100536.00
2022-11-24T13:56:02.901Z,100530.00
2022-11-24T13:58:40.143Z,100538.00
2022-11-24T14:01:21.964Z,100542.00
2022-11-24T14:04:30.519Z,100550.00
2022-11-24T14:07:09.389Z,100544.00
2022-11-24T14:09:44.448Z,100538.00
2022-11-24T14:12:20.397Z,100550.00
2022-11-24T14:14:52.977Z,100543.00
2022-11-24T14:17:25.537Z,100551.00
2022-11-24T14:19:57.226Z,100566.00
2022-11-24T14:22:38.356Z,100565.00
2022-11-24T14:25:09.466Z,100565.00
2022-11-24T14:27:41.445Z,100566.00
2022-11-24T14:30:24.117Z,100569.00
2022-11-24T14:32:58.741Z,100563.00
2022-11-24T14:35:31.498Z,100569.00
2022-11-24T14:38:06.538Z,100591.00
2022-11-24T14:40:45.462Z,100599.00
2022-11-24T14:43:24.967Z,100600.00
2022-11-24T14:45:58.200Z,100603.00
2022-11-24T14:48:31.923Z,100604.00
2022-11-24T14:51:16.895Z,100616.00
2022-11-24T14:53:53.562Z,100613.00
2022-11-24T14:56:29.454Z,100632.00
2022-11-24T14:59:00.818Z,100624.00
2022-11-24T15:01:36.349Z,100623.00
2022-11-24T15:04:46.405Z,100623.00
2022-11-24T15:07:17.979Z,100632.00
2022-11-24T15:09:58.340Z,100632.00
2022-11-24T15:12:34.210Z,100634.00
2022-11-24T15:15:06.369Z,100625.00
2022-11-24T15:17:36.529Z,100632.00
2022-11-24T15:20:13.119Z,100636.00
2022-11-24T15:22:45.313Z,100642.00
2022-11-24T15:25:34.024Z,100640.00
2022-11-24T15:28:04.175Z,100633.00
2022-11-24T15:30:37.004Z,100636.00
2022-11-24T15:33:15.762Z,100633.00
2022-11-24T15:35:46.685Z,100634.00
2022-11-24T15:38:17.375Z,100651.00
2022-11-24T15:40:51.876Z,100649.00
2022-11-24T15:43:31.570Z,100660.00
2022-11-24T15:46:02.826Z,100657.00
2022-11-24T15:48:33.185Z,100666.00
2022-11-24T15:51:07.465Z,100665.00
2022-11-24T15:53:40.933Z,100654.00
2022-11-24T15:56:20.523Z,100659.00
2022-11-24T15:58:50.343Z,100657.00
2022-11-24T16:01:20.253Z,100655.00
2022-11-24T16:03:50.175Z,100663.00
2022-11-24T16:06:25.103Z,100659.00
2022-11-24T16:08:55.853Z,100665.00
2022-11-24T16:11:28.483Z,100670.00
2022-11-24T16:13:58.521Z,100652.00
2022-11-24T16:16:28.467Z,100662.00
2022-11-24T16:18:58.389Z,100670.00
2022-11-24T16:21:28.216Z,100673.00
2022-11-24T16:23:58.386Z,100673.00
2022-11-24T16:26:30.892Z,100672.00
2022-11-24T16:29:00.738Z,100674.00
2022-11-24T16:31:30.583Z,100680.00
2022-11-24T16:34:00.434Z,100668.00
2022-11-24T16:36:30.280Z,100669.00
2022-11-24T16:39:02.305Z,100677.00
2022-11-24T16:41:34.710Z,100675.00
2022-11-24T16:44:04.611Z,100679.00
2022-11-24T16:46:34.515Z,100677.00
2022-11-24T16:49:04.500Z,100685.00
2022-11-24T16:51:35.120Z,100680.00
2022-11-24T16:54:06.115Z,100690.00
2022-11-24T16:56:38.618Z,100682.00
2022-11-24T16:59:08.947Z,100666.00
2022-11-24T17:01:40.226Z,100678.00
2022-11-24T17:04:12.904Z,100696.00
2022-11-24T17:06:43.108Z,100685.00
2022-11-24T17:09:13.114Z,100697.00
2022-11-24T17:11:45.537Z,100693.00
2022-11-24T17:14:15.763Z,100682.00
2022-11-24T17:16:45.658Z,100687.00
2022-11-24T17:19:15.579Z,100695.00
2022-11-24T17:21:45.441Z,100686.00
2022-11-24T17:24:17.689Z,100690.00
2022-11-24T17:26:53.347Z,100698.00
2022-11-24T17:29:23.558Z,100693.00
2022-11-24T17:31:53.487Z,100697.00
2022-11-24T17:34:23.519Z,100699.00
2022-11-24T17:36:53.340Z,100699.00
2022-11-24T17:39:25.169Z,100704.00
2022-11-24T17:41:57.669Z,100700.00
2022-11-24T17:44:27.655Z,100706.00
2022-11-24T17:46:58.927Z,100698.00
2022-11-24T17:49:28.777Z,100709.00
2022-11-24T17:51:58.662Z,100711.00
2022-11-24T17:54:45.993Z,100710.00
2022-11-24T17:57:19.207Z,100722.00
2022-11-24T17:59:51.125Z,100729.00
2022-11-24T18:02:21.098Z,100729.00
2022-11-24T18:04:51.033Z,100734.00
2022-11-24T18:07:20.910Z,100734.00
2022-11-24T18:09:50.827Z,100734.00
2022-11-24T18:12:23.263Z,100733.00
2022-11-24T18:14:53.228Z,100728.00
2022-11-24T18:17:23.092Z,100731.00
2022-11-24T18:19:52.933Z,100729.00
2022-11-24T18:22:43.024Z,100730.00
2022-11-24T18:25:12.870Z,100729.00
2022-11-24T18:27:45.285Z,100733.00
2022-11-24T18:30:15.927Z,100735.00
2022-11-24T18:32:46.246Z,100722.00
2022-11-24T18:35:16.052Z,100734.00
2022-11-24T18:37:45.874Z,100733.00
2022-11-24T18:40:16.198Z,100734.00
2022-11-24T18:42:48.657Z,100735.00
2022-11-24T18:45:18.764Z,100734.00
2022-11-24T18:47:48.633Z,100735.00
2022-11-24T18:50:19.738Z,100736.00
2022-11-24T18:52:49.597Z,100733.00
2022-11-24T18:55:19.700Z,100735.00
2022-11-24T18:57:52.165Z,100727.00
2022-11-24T19:00:22.661Z,100723.00
2022-11-24T19:02:53.525Z,100729.00
2022-11-24T19:05:23.432Z,100720.00
2022-11-24T19:07:53.366Z,100728.00
2022-11-24T19:10:23.290Z,100738.00
2022-11-24T19:12:55.711Z,100744.00
2022-11-24T19:15:25.569Z,100746.00
2022-11-24T19:17:55.416Z,100762.00
2022-11-24T19:20:25.269Z,100765.00
2022-11-24T19:22:55.148Z,100771.00
2022-11-24T19:25:24.978Z,100767.00
2022-11-24T19:27:57.386Z,100773.00
2022-11-24T19:30:29.167Z,100768.00
2022-11-24T19:32:59.176Z,100769.00
2022-11-24T19:35:29.014Z,100770.00
2022-11-24T19:37:58.895Z,100781.00
2022-11-24T19:40:28.803Z,100778.00
2022-11-24T19:43:01.229Z,100771.00
2022-11-24T19:45:32.668Z,100771.00
2022-11-24T19:48:02.595Z,100767.00
2022-11-24T19:50:32.416Z,100764.00
2022-11-24T19:53:02.341Z,100758.00
2022-11-24T19:55:32.384Z,100768.00
2022-11-24T19:58:04.826Z,100764.00
2022-11-24T20:00:34.667Z,100764.00
2022-11-24T20:03:04.631Z,100771.00
2022-11-24T20:05:34.486Z,100786.00
2022-11-24T20:08:04.408Z,100792.00
2022-11-24T20:10:34.726Z,100785.00
2022-11-24T20:13:07.153Z,100789.00
2022-11-24T20:15:37.054Z,100790.00
2022-11-24T20:18:07.057Z,100783.00
2022-11-24T20:20:36.876Z,100795.00
2022-11-24T20:23:06.774Z,100789.00
2022-11-24T20:25:39.884Z,100789.00
2022-11-24T20:28:12.305Z,100779.00
2022-11-24T20:30:42.163Z,100784.00
2022-11-24T20:33:12.019Z,100792.00
2022-11-24T20:35:41.889Z,100787.00
2022-11-24T20:38:11.883Z,100796.00
2022-11-24T20:40:41.762Z,100800.00
2022-11-24T20:43:14.785Z,100802.00
2022-11-24T20:45:44.672Z,100805.00
2022-11-24T20:48:14.522Z,100810.00
2022-11-24T20:50:49.798Z,100812.00
2022-11-24T20:53:21.098Z,100813.00
2022-11-24T20:55:50.957Z,100822.00
2022-11-24T20:58:23.382Z,100813.00
2022-11-24T21:00:53.250Z,100809.00
2022-11-24T21:03:23.118Z,100814.00
2022-11-24T21:05:58.158Z,100812.00
2022-11-24T21:08:28.092Z,100822.00
2022-11-24T21:10:58.990Z,100818.00
2022-11-24T21:13:34.301Z,100811.00
2022-11-24T21:16:14.219Z,100821.00
2022-11-24T21:18:44.762Z,100823.00
2022-11-24T21:21:15.550Z,100821.00
2022-11-24T21:23:45.383Z,100822.00
2022-11-24T21:26:17.057Z,100819.00
2022-11-24T21:28:50.666Z,100823.00
2022-11-24T21:31:23.298Z,100823.00
2022-11-24T21:33:55.781Z,100814.00
2022-11-24T21:36:28.284Z,100818.00
2022-11-24T21:39:00.543Z,100815.00
2022-11-24T21:41:32.281Z,100825.00
2022-11-24T21:44:04.920Z,100833.00
2022-11-24T21:46:40.466Z,100835.00
2022-11-24T21:49:13.271Z,100839.00
2022-11-24T21:51:43.093Z,100836.00
2022-11-24T21:54:12.930Z,100834.00
2022-11-24T21:56:42.813Z,100844.00
2022-11-24T21:59:15.230Z,100850.00
2022-11-24T22:01:45.138Z,100851.00
2022-11-24T22:04:14.974Z,100855.00
2022-11-24T22:06:45.170Z,100856.00
2022-11-24T22:09:17.938Z,100853.00
2022-11-24T22:11:49.253Z,100853.00
2022-11-24T22:14:21.963Z,100860.00
2022-11-24T22:16:51.884Z,100867.00
2022-11-24T22:19:23.014Z,100856.00
2022-11-24T22:21:52.852Z,100855.00
2022-11-24T22:24:27.090Z,100849.00
2022-11-24T22:26:57.482Z,100858.00
2022-11-24T22:29:29.961Z,100846.00
2022-11-24T22:32:00.271Z,100867.00
2022-11-24T22:34:30.153Z,100863.00
2022-11-24T22:36:59.978Z,100867.00
2022-11-24T22:39:29.889Z,100874.00
2022-11-24T22:41:59.844Z,100870.00
2022-11-24T22:44:32.324Z,100877.00
2022-11-24T22:47:02.609Z,100883.00
2022-11-24T22:49:32.433Z,100873.00
2022-11-24T22:52:02.242Z,100875.00
2022-11-24T22:54:32.109Z,100873.00
2022-11-24T22:57:01.919Z,100878.00
2022-11-24T22:59:34.331Z,100868.00
2022-11-24T23:02:04.246Z,100885.00
2022-11-24T23:04:34.465Z,100887.00
2022-11-24T23:07:04.542Z,100883.00
2022-11-24T23:09:34.512Z,100881.00
2022-11-24T23:12:04.493Z,100882.00
2022-11-24T23:14:37.207Z,100879.00
2022-11-24T23:17:07.230Z,100884.00
2022-11-24T23:19:37.209Z,100887.00
2022-11-24T23:22:07.150Z,100885.00
2022-11-24T23:24:38.330Z,100881.00
2022-11-24T23:27:08.276Z,100880.00
2022-11-24T23:29:40.825Z,100876.00
2022-11-24T23:32:10.704Z,100880.00
2022-11-24T23:34:40.727Z,100874.00
2022-11-24T23:37:10.590Z,100879.00
2022-11-24T23:39:40.485Z,100872.00
2022-11-24T23:42:11.008Z,100873.00
2022-11-24T23:44:43.510Z,100872.00
2022-11-24T23:47:13.349Z,100873.00
2022-11-24T23:49:43.219Z,100872.00
2022-11-24T23:52:13.033Z,100875.00
2022-11-24T23:54:42.873Z,100874.00
2022-11-24T23:57:12.833Z,100878.00
2022-11-24T23:59:45.423Z,100884.00
